Thunder radar more information blitzortung!


Radar de pluja more information rain snow radar


Visita la nostra xarxa de llocs de meteo:

Template documentation
and downloads

And another site



No particular awareness of the weather is required.    There are no Weather-warnings

Pagina Historial Weather Underground text

Diari Resum January 14, 2018 Unitats:  Tant    Imperial   Mètric
« Previous Dia
SegĂźent Dia »
Diari Setmana Mensual Anual Personalitzada
  Maxima: Minima: Media:
Temperatura: TemperatureC °F /  -17.8 °C 4.3 °F /  -15.4 °C 8 °F /  -13.3 °C
Punt de rosada: DewpointC °F /  -17.8 °C 0.6 °F /  -17.4 °C 2.2 °F /  -16.6 °C
Humitat: Humidity % 60 % 66 %
Wind Speed: WindSpeedKMH mph /  0 km/h - 5.4 mph /  8.7 km/h
RĂ fegues de vent: WindSpeedGustKMH mph /  0 km/h - -
Vent:- - WSW
Pression baro: PressurehPa in /  0 hPa 1012.8 in /  34293.4 hPa -
Precipitacions: 0.0 in /  0 mm    
Historical Graphs
 
 
Dades de taula per January 14, 2018
Temps Temperatura Punt de rosada Pression baro Vent Wind Speed RĂ fegues de vent Humitat Rainfall Rate (Hourly)
TemperatureC °F /  -17.8 °C DewpointC °F /  -17.8 °C PressurehPa in /  0 hPa Calm     Humidity % HourlyPrecipMM in /  0 mm
00:00 6.8 °F /  -14 °C 2.5 °F /  -16.4 °C 1013.8 in /  34327.3 hPa NNE 2.3 mph /  3.7 km/h 2.3 mph /  3.7 km/h 74 % 0.0 in /  0 mm
00:05 5.9 °F /  -14.5 °C 2.6 °F /  -16.3 °C 1012.8 in /  34293.4 hPa West 3.2 mph /  5.1 km/h 4.8 mph /  7.7 km/h 79 % 0.0 in /  0 mm
00:25 5.7 °F /  -14.6 °C 2.2 °F /  -16.6 °C 1012.8 in /  34293.4 hPa WSW 3.2 mph /  5.1 km/h 3.2 mph /  5.1 km/h 78 % 0.0 in /  0 mm
00:35 5.4 °F /  -14.8 °C 1.9 °F /  -16.7 °C 1012.8 in /  34293.4 hPa WSW 1.6 mph /  2.6 km/h 3.2 mph /  5.1 km/h 78 % 0.0 in /  0 mm
00:45 5.4 °F /  -14.8 °C 1.9 °F /  -16.7 °C 1012.8 in /  34293.4 hPa WSW 1.6 mph /  2.6 km/h 6.4 mph /  10.3 km/h 78 % 0.0 in /  0 mm
00:55 5.3 °F /  -14.8 °C 1.8 °F /  -16.8 °C 1012.8 in /  34293.4 hPa SW 1.6 mph /  2.6 km/h 3.2 mph /  5.1 km/h 78 % 0.0 in /  0 mm
01:05 5.2 °F /  -14.9 °C 1.7 °F /  -16.8 °C 1012.8 in /  34293.4 hPa SW 3.2 mph /  5.1 km/h 3.2 mph /  5.1 km/h 78 % 0.0 in /  0 mm
01:15 5.0 °F /  -15 °C 1.5 °F /  -16.9 °C 1012.8 in /  34293.4 hPa WSW 3.2 mph /  5.1 km/h 4.8 mph /  7.7 km/h 78 % 0.0 in /  0 mm
01:25 4.9 °F /  -15.1 °C 1.4 °F /  -17 °C 1013.8 in /  34327.3 hPa WSW 3.2 mph /  5.1 km/h 4.8 mph /  7.7 km/h 78 % 0.0 in /  0 mm
01:35 4.8 °F /  -15.1 °C 1.3 °F /  -17.1 °C 1013.8 in /  34327.3 hPa WSW 1.6 mph /  2.6 km/h 3.2 mph /  5.1 km/h 78 % 0.0 in /  0 mm
01:45 4.7 °F /  -15.2 °C 1.2 °F /  -17.1 °C 1013.8 in /  34327.3 hPa WSW 3.2 mph /  5.1 km/h 3.2 mph /  5.1 km/h 78 % 0.0 in /  0 mm
01:55 4.6 °F /  -15.2 °C 0.9 °F /  -17.3 °C 1013.8 in /  34327.3 hPa WSW 3.2 mph /  5.1 km/h 4.8 mph /  7.7 km/h 77 % 0.0 in /  0 mm
02:05 4.5 °F /  -15.3 °C 0.8 °F /  -17.3 °C 1012.8 in /  34293.4 hPa WSW 1.6 mph /  2.6 km/h 3.2 mph /  5.1 km/h 77 % 0.0 in /  0 mm
02:25 4.3 °F /  -15.4 °C 0.6 °F /  -17.4 °C 1013.8 in /  34327.3 hPa WSW 1.6 mph /  2.6 km/h 3.2 mph /  5.1 km/h 77 % 0.0 in /  0 mm
02:35 4.3 °F /  -15.4 °C 0.6 °F /  -17.4 °C 1013.8 in /  34327.3 hPa WSW 1.6 mph /  2.6 km/h 3.2 mph /  5.1 km/h 77 % 0.0 in /  0 mm
02:45 4.5 °F /  -15.3 °C 0.8 °F /  -17.3 °C 1013.8 in /  34327.3 hPa WSW 1.6 mph /  2.6 km/h 3.2 mph /  5.1 km/h 77 % 0.0 in /  0 mm
02:55 4.7 °F /  -15.2 °C 1.0 °F /  -17.2 °C 1013.8 in /  34327.3 hPa WSW 1.6 mph /  2.6 km/h 3.2 mph /  5.1 km/h 77 % 0.0 in /  0 mm
03:05 5.2 °F /  -14.9 °C 1.7 °F /  -16.8 °C 1013.8 in /  34327.3 hPa Calm     78 % 0.0 in /  0 mm
03:15 5.8 °F /  -14.6 °C 2.1 °F /  -16.6 °C 1013.8 in /  34327.3 hPa SW 1.6 mph /  2.6 km/h 4.8 mph /  7.7 km/h 77 % 0.0 in /  0 mm
03:25 6.0 °F /  -14.4 °C 2.3 °F /  -16.5 °C 1013.8 in /  34327.3 hPa WSW 1.6 mph /  2.6 km/h 3.2 mph /  5.1 km/h 77 % 0.0 in /  0 mm
03:35 6.3 °F /  -14.3 °C 2.6 °F /  -16.3 °C 1014.8 in /  34361.1 hPa WSW 3.2 mph /  5.1 km/h 4.8 mph /  7.7 km/h 77 % 0.0 in /  0 mm
03:45 6.9 °F /  -13.9 °C 2.9 °F /  -16.2 °C 1014.8 in /  34361.1 hPa WSW 4.8 mph /  7.7 km/h 8.0 mph /  12.9 km/h 76 % 0.0 in /  0 mm
03:55 7.0 °F /  -13.9 °C 2.9 °F /  -16.2 °C 1014.8 in /  34361.1 hPa WSW 3.2 mph /  5.1 km/h 3.2 mph /  5.1 km/h 75 % 0.0 in /  0 mm
04:05 7.0 °F /  -13.9 °C 2.9 °F /  -16.2 °C 1014.8 in /  34361.1 hPa WSW 3.2 mph /  5.1 km/h 4.8 mph /  7.7 km/h 75 % 0.0 in /  0 mm
04:15 7.7 °F /  -13.5 °C 3.6 °F /  -15.8 °C 1014.8 in /  34361.1 hPa WSW 4.8 mph /  7.7 km/h 4.8 mph /  7.7 km/h 75 % 0.0 in /  0 mm
04:25 8.4 °F /  -13.1 °C 4.1 °F /  -15.5 °C 1014.8 in /  34361.1 hPa WSW 3.2 mph /  5.1 km/h 4.8 mph /  7.7 km/h 74 % 0.0 in /  0 mm
04:35 8.7 °F /  -12.9 °C 4.1 °F /  -15.5 °C 1014.8 in /  34361.1 hPa WSW 3.2 mph /  5.1 km/h 9.7 mph /  15.6 km/h 73 % 0.0 in /  0 mm
04:45 9.5 °F /  -12.5 °C 4.7 °F /  -15.2 °C 1014.8 in /  34361.1 hPa WSW 1.6 mph /  2.6 km/h 4.8 mph /  7.7 km/h 72 % 0.0 in /  0 mm
04:55 9.0 °F /  -12.8 °C 4.0 °F /  -15.6 °C 1015.8 in /  34395 hPa SW 3.2 mph /  5.1 km/h 4.8 mph /  7.7 km/h 71 % 0.0 in /  0 mm
05:15 8.0 °F /  -13.3 °C 2.7 °F /  -16.3 °C 1015.8 in /  34395 hPa West 9.7 mph /  15.6 km/h 9.7 mph /  15.6 km/h 69 % 0.0 in /  0 mm
05:20 8.2 °F /  -13.2 °C 2.8 °F /  -16.2 °C 1015.8 in /  34395 hPa WSW 8.0 mph /  12.9 km/h 8.0 mph /  12.9 km/h 69 % 0.0 in /  0 mm
11:29 8.0 °F /  -13.3 °C 2.7 °F /  -16.3 °C 1015.8 in /  34395 hPa NNW 11.9 mph /  19.2 km/h 11.9 mph /  19.2 km/h 69 % 0.0 in /  0 mm
11:53 7.7 °F /  -13.5 °C 2.4 °F /  -16.4 °C 1015.8 in /  34395 hPa SW 12.2 mph /  19.6 km/h 12.2 mph /  19.6 km/h 69 % 0.0 in /  0 mm
11:59 7.8 °F /  -13.4 °C 2.4 °F /  -16.4 °C 1015.8 in /  34395 hPa West 9.3 mph /  15 km/h 9.3 mph /  15 km/h 69 % 0.0 in /  0 mm
12:09 8.5 °F /  -13.1 °C 3.1 °F /  -16.1 °C 1015.8 in /  34395 hPa WSW 5.6 mph /  9 km/h 5.6 mph /  9 km/h 69 % 0.0 in /  0 mm
12:15 8.6 °F /  -13 °C 3.0 °F /  -16.1 °C 1015.8 in /  34395 hPa WNW 5.6 mph /  9 km/h 5.6 mph /  9 km/h 68 % 0.0 in /  0 mm
12:21 8.6 °F /  -13 °C 3.0 °F /  -16.1 °C 1015.8 in /  34395 hPa NW 3.7 mph /  6 km/h 3.9 mph /  6.3 km/h 68 % 0.0 in /  0 mm
12:27 8.7 °F /  -12.9 °C 3.1 °F /  -16.1 °C 1015.8 in /  34395 hPa WNW 3.7 mph /  6 km/h 3.7 mph /  6 km/h 68 % 0.0 in /  0 mm
12:34 9.2 °F /  -12.7 °C 3.6 °F /  -15.8 °C 1015.8 in /  34395 hPa North 6.9 mph /  11.1 km/h 6.9 mph /  11.1 km/h 68 % 0.0 in /  0 mm
12:42 9.5 °F /  -12.5 °C 3.9 °F /  -15.6 °C 1015.8 in /  34395 hPa NNW 7.4 mph /  11.9 km/h 7.4 mph /  11.9 km/h 68 % 0.0 in /  0 mm
12:59 9.3 °F /  -12.6 °C 3.3 °F /  -15.9 °C 1014.8 in /  34361.1 hPa West 7.4 mph /  11.9 km/h 7.4 mph /  11.9 km/h 66 % 0.0 in /  0 mm
13:06 9.2 °F /  -12.7 °C 2.9 °F /  -16.2 °C 1014.8 in /  34361.1 hPa West 5.6 mph /  9 km/h 5.6 mph /  9 km/h 65 % 0.0 in /  0 mm
13:12 9.3 °F /  -12.6 °C 3.1 °F /  -16.1 °C 1014.8 in /  34361.1 hPa ENE 5.6 mph /  9 km/h 5.6 mph /  9 km/h 65 % 0.0 in /  0 mm
13:26 9.3 °F /  -12.6 °C 3.1 °F /  -16.1 °C 1014.8 in /  34361.1 hPa South 3.7 mph /  6 km/h 3.7 mph /  6 km/h 65 % 0.0 in /  0 mm
13:40 9.0 °F /  -12.8 °C 3.0 °F /  -16.1 °C 1014.8 in /  34361.1 hPa WNW 7.4 mph /  11.9 km/h 7.4 mph /  11.9 km/h 66 % 0.0 in /  0 mm
14:01 9.1 °F /  -12.7 °C 3.1 °F /  -16.1 °C 1014.8 in /  34361.1 hPa West 5.6 mph /  9 km/h 5.6 mph /  9 km/h 66 % 0.0 in /  0 mm
14:16 9.0 °F /  -12.8 °C 2.8 °F /  -16.2 °C 1014.8 in /  34361.1 hPa West 14.8 mph /  23.8 km/h 14.8 mph /  23.8 km/h 65 % 0.0 in /  0 mm
14:23 9.2 °F /  -12.7 °C 2.9 °F /  -16.2 °C 1014.8 in /  34361.1 hPa West 7.4 mph /  11.9 km/h 7.4 mph /  11.9 km/h 65 % 0.0 in /  0 mm
14:29 9.4 °F /  -12.6 °C 3.2 °F /  -16 °C 1014.8 in /  34361.1 hPa SSW 5.6 mph /  9 km/h 5.6 mph /  9 km/h 65 % 0.0 in /  0 mm
14:44 10.3 °F /  -12.1 °C 3.8 °F /  -15.7 °C 1014.8 in /  34361.1 hPa WSW 9.3 mph /  15 km/h 9.3 mph /  15 km/h 64 % 0.0 in /  0 mm
14:59 10.3 °F /  -12.1 °C 3.6 °F /  -15.8 °C 1014.8 in /  34361.1 hPa WSW 9.3 mph /  15 km/h 9.3 mph /  15 km/h 63 % 0.0 in /  0 mm
15:11 10.1 °F /  -12.2 °C 3.4 °F /  -15.9 °C 1014.8 in /  34361.1 hPa WSW 13.7 mph /  22 km/h 13.7 mph /  22 km/h 63 % 0.0 in /  0 mm
15:17 10.4 °F /  -12 °C 3.4 °F /  -15.9 °C 1014.8 in /  34361.1 hPa WNW 7.9 mph /  12.7 km/h 7.9 mph /  12.7 km/h 62 % 0.0 in /  0 mm
15:23 10.6 °F /  -11.9 °C 3.6 °F /  -15.8 °C 1014.8 in /  34361.1 hPa WSW 9.3 mph /  15 km/h 9.3 mph /  15 km/h 62 % 0.0 in /  0 mm
15:47 10.2 °F /  -12.1 °C 2.8 °F /  -16.2 °C 1014.8 in /  34361.1 hPa West 9.3 mph /  15 km/h 9.3 mph /  15 km/h 60 % 0.0 in /  0 mm
15:52 10.2 °F /  -12.1 °C 2.8 °F /  -16.2 °C 1015.8 in /  34395 hPa WSW 9.5 mph /  15.3 km/h 9.5 mph /  15.3 km/h 60 % 0.0 in /  0 mm
15:59 10.3 °F /  -12.1 °C 2.9 °F /  -16.2 °C 1015.8 in /  34395 hPa WNW 5.6 mph /  9 km/h 5.6 mph /  9 km/h 60 % 0.0 in /  0 mm
16:08 10.3 °F /  -12.1 °C 3.1 °F /  -16.1 °C 1015.8 in /  34395 hPa West 7.4 mph /  11.9 km/h 7.4 mph /  11.9 km/h 61 % 0.0 in /  0 mm
16:34 9.5 °F /  -12.5 °C 2.1 °F /  -16.6 °C 1015.8 in /  34395 hPa SW 5.6 mph /  9 km/h 5.6 mph /  9 km/h 60 % 0.0 in /  0 mm
16:47 9.5 °F /  -12.5 °C 2.1 °F /  -16.6 °C 1015.8 in /  34395 hPa ENE 9.3 mph /  15 km/h 9.3 mph /  15 km/h 60 % 0.0 in /  0 mm
16:58 9.4 °F /  -12.6 °C 2.0 °F /  -16.7 °C 1015.8 in /  34395 hPa WNW 5.6 mph /  9 km/h 5.6 mph /  9 km/h 60 % 0.0 in /  0 mm
17:05 9.3 °F /  -12.6 °C 1.9 °F /  -16.7 °C 1015.8 in /  34395 hPa WNW 7.4 mph /  11.9 km/h 7.4 mph /  11.9 km/h 60 % 0.0 in /  0 mm
17:21 8.8 °F /  -12.9 °C 1.7 °F /  -16.8 °C 1015.8 in /  34395 hPa WSW 5.6 mph /  9 km/h 5.6 mph /  9 km/h 61 % 0.0 in /  0 mm
17:36 8.7 °F /  -12.9 °C 1.6 °F /  -16.9 °C 1015.8 in /  34395 hPa WSW 5.8 mph /  9.3 km/h 5.8 mph /  9.3 km/h 61 % 0.0 in /  0 mm
18:07 8.7 °F /  -12.9 °C 1.6 °F /  -16.9 °C 1015.8 in /  34395 hPa WSW 5.8 mph /  9.3 km/h 5.8 mph /  9.3 km/h 61 % 0.0 in /  0 mm
18:19 8.7 °F /  -12.9 °C 1.6 °F /  -16.9 °C 1015.8 in /  34395 hPa WSW 5.8 mph /  9.3 km/h 5.8 mph /  9.3 km/h 61 % 0.0 in /  0 mm
18:31 8.7 °F /  -12.9 °C 1.6 °F /  -16.9 °C 1015.8 in /  34395 hPa WSW 5.8 mph /  9.3 km/h 5.8 mph /  9.3 km/h 61 % 0.0 in /  0 mm
18:51 8.7 °F /  -12.9 °C 1.6 °F /  -16.9 °C 1015.8 in /  34395 hPa WSW 5.8 mph /  9.3 km/h 5.8 mph /  9.3 km/h 61 % 0.0 in /  0 mm
19:00 8.7 °F /  -12.9 °C 1.6 °F /  -16.9 °C 1015.8 in /  34395 hPa WSW 5.8 mph /  9.3 km/h 5.8 mph /  9.3 km/h 61 % 0.0 in /  0 mm
19:12 8.7 °F /  -12.9 °C 1.6 °F /  -16.9 °C 1015.8 in /  34395 hPa WSW 5.8 mph /  9.3 km/h 5.8 mph /  9.3 km/h 61 % 0.0 in /  0 mm
19:19 8.7 °F /  -12.9 °C 1.6 °F /  -16.9 °C 1015.8 in /  34395 hPa WSW 5.8 mph /  9.3 km/h 5.8 mph /  9.3 km/h 61 % 0.0 in /  0 mm
19:29 8.7 °F /  -12.9 °C 1.6 °F /  -16.9 °C 1015.8 in /  34395 hPa WSW 5.8 mph /  9.3 km/h 5.8 mph /  9.3 km/h 61 % 0.0 in /  0 mm
19:41 8.7 °F /  -12.9 °C 1.6 °F /  -16.9 °C 1015.8 in /  34395 hPa WSW 5.8 mph /  9.3 km/h 5.8 mph /  9.3 km/h 61 % 0.0 in /  0 mm
19:47 8.7 °F /  -12.9 °C 1.6 °F /  -16.9 °C 1015.8 in /  34395 hPa WSW 5.8 mph /  9.3 km/h 5.8 mph /  9.3 km/h 61 % 0.0 in /  0 mm
19:52 8.7 °F /  -12.9 °C 1.6 °F /  -16.9 °C 1015.8 in /  34395 hPa WSW 5.8 mph /  9.3 km/h 5.8 mph /  9.3 km/h 61 % 0.0 in /  0 mm
20:05 8.7 °F /  -12.9 °C 1.6 °F /  -16.9 °C 1015.8 in /  34395 hPa WSW 5.8 mph /  9.3 km/h 5.8 mph /  9.3 km/h 61 % 0.0 in /  0 mm
20:11 8.7 °F /  -12.9 °C 1.6 °F /  -16.9 °C 1015.8 in /  34395 hPa WSW 5.8 mph /  9.3 km/h 5.8 mph /  9.3 km/h 61 % 0.0 in /  0 mm
20:17 8.7 °F /  -12.9 °C 1.6 °F /  -16.9 °C 1015.8 in /  34395 hPa WSW 5.8 mph /  9.3 km/h 5.8 mph /  9.3 km/h 61 % 0.0 in /  0 mm
20:22 8.7 °F /  -12.9 °C 1.6 °F /  -16.9 °C 1015.8 in /  34395 hPa WSW 5.8 mph /  9.3 km/h 5.8 mph /  9.3 km/h 61 % 0.0 in /  0 mm
20:27 8.7 °F /  -12.9 °C 1.6 °F /  -16.9 °C 1015.8 in /  34395 hPa WSW 5.8 mph /  9.3 km/h 5.8 mph /  9.3 km/h 61 % 0.0 in /  0 mm
20:36 8.7 °F /  -12.9 °C 1.6 °F /  -16.9 °C 1015.8 in /  34395 hPa WSW 5.8 mph /  9.3 km/h 5.8 mph /  9.3 km/h 61 % 0.0 in /  0 mm
21:04 8.7 °F /  -12.9 °C 1.6 °F /  -16.9 °C 1015.8 in /  34395 hPa WSW 5.8 mph /  9.3 km/h 5.8 mph /  9.3 km/h 61 % 0.0 in /  0 mm
21:10 8.7 °F /  -12.9 °C 1.6 °F /  -16.9 °C 1015.8 in /  34395 hPa WSW 5.8 mph /  9.3 km/h 5.8 mph /  9.3 km/h 61 % 0.0 in /  0 mm
21:24 8.7 °F /  -12.9 °C 1.6 °F /  -16.9 °C 1015.8 in /  34395 hPa WSW 5.8 mph /  9.3 km/h 5.8 mph /  9.3 km/h 61 % 0.0 in /  0 mm
21:36 8.7 °F /  -12.9 °C 1.6 °F /  -16.9 °C 1015.8 in /  34395 hPa WSW 5.8 mph /  9.3 km/h 5.8 mph /  9.3 km/h 61 % 0.0 in /  0 mm
22:06 8.7 °F /  -12.9 °C 1.6 °F /  -16.9 °C 1015.8 in /  34395 hPa WSW 5.8 mph /  9.3 km/h 5.8 mph /  9.3 km/h 61 % 0.0 in /  0 mm
22:12 8.7 °F /  -12.9 °C 1.6 °F /  -16.9 °C 1015.8 in /  34395 hPa WSW 5.8 mph /  9.3 km/h 5.8 mph /  9.3 km/h 61 % 0.0 in /  0 mm
22:24 8.7 °F /  -12.9 °C 1.6 °F /  -16.9 °C 1015.8 in /  34395 hPa WSW 5.8 mph /  9.3 km/h 5.8 mph /  9.3 km/h 61 % 0.0 in /  0 mm
22:38 8.7 °F /  -12.9 °C 1.6 °F /  -16.9 °C 1015.8 in /  34395 hPa WSW 5.8 mph /  9.3 km/h 5.8 mph /  9.3 km/h 61 % 0.0 in /  0 mm
22:43 8.7 °F /  -12.9 °C 1.6 °F /  -16.9 °C 1015.8 in /  34395 hPa WSW 5.8 mph /  9.3 km/h 5.8 mph /  9.3 km/h 61 % 0.0 in /  0 mm
22:50 8.7 °F /  -12.9 °C 1.6 °F /  -16.9 °C 1015.8 in /  34395 hPa WSW 5.8 mph /  9.3 km/h 5.8 mph /  9.3 km/h 61 % 0.0 in /  0 mm
22:57 8.7 °F /  -12.9 °C 1.6 °F /  -16.9 °C 1015.8 in /  34395 hPa WSW 5.8 mph /  9.3 km/h 5.8 mph /  9.3 km/h 61 % 0.0 in /  0 mm
23:16 8.7 °F /  -12.9 °C 1.6 °F /  -16.9 °C 1015.8 in /  34395 hPa WSW 5.8 mph /  9.3 km/h 5.8 mph /  9.3 km/h 61 % 0.0 in /  0 mm
23:40 8.7 °F /  -12.9 °C 1.6 °F /  -16.9 °C 1015.8 in /  34395 hPa WSW 5.8 mph /  9.3 km/h 5.8 mph /  9.3 km/h 61 % 0.0 in /  0 mm
Meteo Sesrovires
Elogis d' Weather Underground - 1.25 mb

Guio original per  Jim McMurry - jmcmurry@mwt.net Adaptat per a la plantilla per  Wim van der Kuil - Leuven-Template.eu

Trobareu la nostra informacio del temps tambe a:

Weather Underground

AWEKAS